sensor_id;sensor_type;location;lat;lon;timestamp;P1;durP1;ratioP1;P2;durP2;ratioP2
74108;SDS011;62466;47.566;7.786;2023-02-15T00:00:52;33.53;;;16.58;;
74108;SDS011;62466;47.566;7.786;2023-02-15T00:03:20;40.40;;;19.50;;
74108;SDS011;62466;47.566;7.786;2023-02-15T00:05:46;33.50;;;18.27;;
74108;SDS011;62466;47.566;7.786;2023-02-15T00:08:11;35.78;;;18.27;;
74108;SDS011;62466;47.566;7.786;2023-02-15T00:10:37;31.38;;;17.23;;
74108;SDS011;62466;47.566;7.786;2023-02-15T00:13:02;35.53;;;16.92;;
74108;SDS011;62466;47.566;7.786;2023-02-15T00:15:28;35.38;;;17.45;;
74108;SDS011;62466;47.566;7.786;2023-02-15T00:17:53;37.08;;;17.65;;
74108;SDS011;62466;47.566;7.786;2023-02-15T00:20:19;32.97;;;17.30;;
74108;SDS011;62466;47.566;7.786;2023-02-15T00:22:44;42.95;;;16.88;;
74108;SDS011;62466;47.566;7.786;2023-02-15T00:25:10;29.77;;;16.35;;
74108;SDS011;62466;47.566;7.786;2023-02-15T00:27:35;38.88;;;16.88;;
74108;SDS011;62466;47.566;7.786;2023-02-15T00:30:01;34.20;;;16.42;;
74108;SDS011;62466;47.566;7.786;2023-02-15T00:32:28;30.90;;;14.55;;
74108;SDS011;62466;47.566;7.786;2023-02-15T00:34:54;35.88;;;16.67;;
74108;SDS011;62466;47.566;7.786;2023-02-15T00:37:19;34.88;;;18.00;;
74108;SDS011;62466;47.566;7.786;2023-02-15T00:39:46;32.80;;;17.35;;
74108;SDS011;62466;47.566;7.786;2023-02-15T00:42:11;30.25;;;16.35;;
74108;SDS011;62466;47.566;7.786;2023-02-15T00:44:37;36.70;;;17.23;;
74108;SDS011;62466;47.566;7.786;2023-02-15T00:47:02;32.13;;;15.93;;
74108;SDS011;62466;47.566;7.786;2023-02-15T00:49:28;33.50;;;16.98;;
74108;SDS011;62466;47.566;7.786;2023-02-15T00:51:53;29.52;;;15.23;;
74108;SDS011;62466;47.566;7.786;2023-02-15T00:54:19;28.38;;;16.33;;
74108;SDS011;62466;47.566;7.786;2023-02-15T00:56:44;32.25;;;15.25;;
74108;SDS011;62466;47.566;7.786;2023-02-15T00:59:10;38.67;;;17.63;;
74108;SDS011;62466;47.566;7.786;2023-02-15T01:01:35;34.08;;;16.65;;
74108;SDS011;62466;47.566;7.786;2023-02-15T01:04:01;29.90;;;15.68;;
74108;SDS011;62466;47.566;7.786;2023-02-15T01:06:28;28.45;;;15.77;;
74108;SDS011;62466;47.566;7.786;2023-02-15T01:08:53;32.47;;;16.88;;
74108;SDS011;62466;47.566;7.786;2023-02-15T01:11:20;30.17;;;15.77;;
74108;SDS011;62466;47.566;7.786;2023-02-15T01:13:57;32.47;;;16.20;;
74108;SDS011;62466;47.566;7.786;2023-02-15T01:23:51;29.23;;;14.60;;
74108;SDS011;62466;47.566;7.786;2023-02-15T01:26:17;28.05;;;15.55;;
74108;SDS011;62466;47.566;7.786;2023-02-15T01:28:43;26.42;;;14.93;;
74108;SDS011;62466;47.566;7.786;2023-02-15T01:31:10;28.92;;;14.55;;
74108;SDS011;62466;47.566;7.786;2023-02-15T01:33:37;34.65;;;16.60;;
74108;SDS011;62466;47.566;7.786;2023-02-15T01:36:04;28.30;;;14.98;;
74108;SDS011;62466;47.566;7.786;2023-02-15T01:38:31;31.90;;;15.90;;
74108;SDS011;62466;47.566;7.786;2023-02-15T01:40:57;32.60;;;16.38;;
74108;SDS011;62466;47.566;7.786;2023-02-15T01:43:51;32.15;;;15.48;;
74108;SDS011;62466;47.566;7.786;2023-02-15T01:46:18;28.13;;;15.02;;
74108;SDS011;62466;47.566;7.786;2023-02-15T01:48:48;27.45;;;15.18;;
74108;SDS011;62466;47.566;7.786;2023-02-15T01:51:17;30.52;;;16.00;;
74108;SDS011;62466;47.566;7.786;2023-02-15T01:53:50;29.48;;;15.77;;
74108;SDS011;62466;47.566;7.786;2023-02-15T01:56:19;34.25;;;15.68;;
74108;SDS011;62466;47.566;7.786;2023-02-15T01:58:49;31.77;;;16.15;;
74108;SDS011;62466;47.566;7.786;2023-02-15T02:01:15;35.95;;;15.18;;
74108;SDS011;62466;47.566;7.786;2023-02-15T02:04:04;30.38;;;15.38;;
74108;SDS011;62466;47.566;7.786;2023-02-15T02:06:32;39.78;;;16.38;;
74108;SDS011;62466;47.566;7.786;2023-02-15T02:09:00;32.15;;;14.98;;
74108;SDS011;62466;47.566;7.786;2023-02-15T02:11:25;28.10;;;15.60;;
74108;SDS011;62466;47.566;7.786;2023-02-15T02:13:51;25.92;;;13.98;;
74108;SDS011;62466;47.566;7.786;2023-02-15T02:16:25;28.40;;;15.30;;
74108;SDS011;62466;47.566;7.786;2023-02-15T02:22:23;26.42;;;14.85;;
74108;SDS011;62466;47.566;7.786;2023-02-15T02:30:44;25.90;;;13.90;;
74108;SDS011;62466;47.566;7.786;2023-02-15T02:33:36;23.73;;;13.65;;
74108;SDS011;62466;47.566;7.786;2023-02-15T02:41:17;24.23;;;14.48;;
74108;SDS011;62466;47.566;7.786;2023-02-15T02:46:20;23.00;;;14.13;;
74108;SDS011;62466;47.566;7.786;2023-02-15T02:48:57;25.67;;;15.07;;
74108;SDS011;62466;47.566;7.786;2023-02-15T02:51:23;26.95;;;14.30;;
74108;SDS011;62466;47.566;7.786;2023-02-15T02:53:50;29.77;;;14.57;;
74108;SDS011;62466;47.566;7.786;2023-02-15T02:56:20;25.85;;;14.80;;
74108;SDS011;62466;47.566;7.786;2023-02-15T03:01:24;29.42;;;14.88;;
74108;SDS011;62466;47.566;7.786;2023-02-15T03:03:58;25.95;;;13.30;;
74108;SDS011;62466;47.566;7.786;2023-02-15T03:06:30;26.63;;;15.00;;
74108;SDS011;62466;47.566;7.786;2023-02-15T03:09:04;26.88;;;14.30;;
74108;SDS011;62466;47.566;7.786;2023-02-15T03:11:41;28.65;;;13.63;;
74108;SDS011;62466;47.566;7.786;2023-02-15T03:14:07;24.50;;;14.18;;
74108;SDS011;62466;47.566;7.786;2023-02-15T03:16:33;27.67;;;15.05;;
74108;SDS011;62466;47.566;7.786;2023-02-15T03:19:06;24.95;;;13.27;;
74108;SDS011;62466;47.566;7.786;2023-02-15T03:21:38;24.45;;;12.50;;
74108;SDS011;62466;47.566;7.786;2023-02-15T03:24:09;22.33;;;13.25;;
74108;SDS011;62466;47.566;7.786;2023-02-15T03:26:36;22.85;;;11.93;;
74108;SDS011;62466;47.566;7.786;2023-02-15T03:29:04;24.60;;;13.95;;
74108;SDS011;62466;47.566;7.786;2023-02-15T03:31:31;31.15;;;14.48;;
74108;SDS011;62466;47.566;7.786;2023-02-15T03:34:00;28.10;;;15.45;;
74108;SDS011;62466;47.566;7.786;2023-02-15T03:47:23;33.85;;;15.07;;
74108;SDS011;62466;47.566;7.786;2023-02-15T03:49:55;33.92;;;15.02;;
74108;SDS011;62466;47.566;7.786;2023-02-15T03:52:25;28.63;;;15.73;;
74108;SDS011;62466;47.566;7.786;2023-02-15T03:54:52;28.55;;;14.60;;
74108;SDS011;62466;47.566;7.786;2023-02-15T03:57:23;24.23;;;13.82;;
74108;SDS011;62466;47.566;7.786;2023-02-15T04:03:10;27.70;;;15.88;;
74108;SDS011;62466;47.566;7.786;2023-02-15T04:05:40;26.92;;;15.50;;
74108;SDS011;62466;47.566;7.786;2023-02-15T04:08:06;34.10;;;15.35;;
74108;SDS011;62466;47.566;7.786;2023-02-15T04:10:32;25.58;;;13.95;;
74108;SDS011;62466;47.566;7.786;2023-02-15T04:13:16;31.20;;;14.95;;
74108;SDS011;62466;47.566;7.786;2023-02-15T04:15:41;31.08;;;16.98;;
74108;SDS011;62466;47.566;7.786;2023-02-15T04:18:25;27.85;;;15.30;;
74108;SDS011;62466;47.566;7.786;2023-02-15T04:21:09;25.42;;;13.73;;
74108;SDS011;62466;47.566;7.786;2023-02-15T04:23:53;25.08;;;12.68;;
74108;SDS011;62466;47.566;7.786;2023-02-15T04:26:37;21.60;;;12.95;;
74108;SDS011;62466;47.566;7.786;2023-02-15T04:29:03;23.75;;;14.43;;
74108;SDS011;62466;47.566;7.786;2023-02-15T04:31:28;25.15;;;13.48;;
74108;SDS011;62466;47.566;7.786;2023-02-15T04:33:54;26.58;;;13.18;;
74108;SDS011;62466;47.566;7.786;2023-02-15T04:36:19;31.58;;;14.40;;
74108;SDS011;62466;47.566;7.786;2023-02-15T04:38:46;25.50;;;13.65;;
74108;SDS011;62466;47.566;7.786;2023-02-15T04:41:11;25.13;;;13.13;;
74108;SDS011;62466;47.566;7.786;2023-02-15T04:43:38;23.10;;;13.38;;
74108;SDS011;62466;47.566;7.786;2023-02-15T04:46:03;31.20;;;14.82;;
74108;SDS011;62466;47.566;7.786;2023-02-15T04:48:29;22.05;;;12.25;;
74108;SDS011;62466;47.566;7.786;2023-02-15T04:50:55;26.38;;;14.25;;
74108;SDS011;62466;47.566;7.786;2023-02-15T04:53:21;26.73;;;14.20;;
74108;SDS011;62466;47.566;7.786;2023-02-15T04:55:46;24.50;;;13.95;;
74108;SDS011;62466;47.566;7.786;2023-02-15T04:58:12;24.95;;;13.18;;
74108;SDS011;62466;47.566;7.786;2023-02-15T05:00:37;23.80;;;13.48;;
74108;SDS011;62466;47.566;7.786;2023-02-15T05:03:03;24.70;;;14.13;;
74108;SDS011;62466;47.566;7.786;2023-02-15T05:05:28;26.63;;;14.13;;
74108;SDS011;62466;47.566;7.786;2023-02-15T05:07:54;23.77;;;12.52;;
74108;SDS011;62466;47.566;7.786;2023-02-15T05:10:19;21.90;;;13.43;;
74108;SDS011;62466;47.566;7.786;2023-02-15T05:12:45;25.50;;;13.65;;
74108;SDS011;62466;47.566;7.786;2023-02-15T05:15:11;23.23;;;13.00;;
74108;SDS011;62466;47.566;7.786;2023-02-15T05:17:36;25.63;;;14.27;;
74108;SDS011;62466;47.566;7.786;2023-02-15T05:20:02;24.80;;;13.85;;
74108;SDS011;62466;47.566;7.786;2023-02-15T05:22:28;25.55;;;13.63;;
74108;SDS011;62466;47.566;7.786;2023-02-15T05:24:54;26.48;;;14.40;;
74108;SDS011;62466;47.566;7.786;2023-02-15T05:27:38;24.50;;;12.73;;
74108;SDS011;62466;47.566;7.786;2023-02-15T05:30:22;27.88;;;12.77;;
74108;SDS011;62466;47.566;7.786;2023-02-15T05:32:48;27.17;;;13.82;;
74108;SDS011;62466;47.566;7.786;2023-02-15T05:35:14;21.58;;;13.05;;
74108;SDS011;62466;47.566;7.786;2023-02-15T05:37:40;25.25;;;14.02;;
74108;SDS011;62466;47.566;7.786;2023-02-15T05:40:06;23.67;;;13.45;;
74108;SDS011;62466;47.566;7.786;2023-02-15T05:42:32;24.58;;;13.43;;
74108;SDS011;62466;47.566;7.786;2023-02-15T05:44:57;23.27;;;13.00;;
74108;SDS011;62466;47.566;7.786;2023-02-15T05:47:23;27.38;;;13.57;;
74108;SDS011;62466;47.566;7.786;2023-02-15T05:49:48;26.75;;;15.27;;
74108;SDS011;62466;47.566;7.786;2023-02-15T05:52:14;23.63;;;13.55;;
74108;SDS011;62466;47.566;7.786;2023-02-15T05:54:39;24.35;;;13.27;;
74108;SDS011;62466;47.566;7.786;2023-02-15T05:57:05;30.23;;;13.52;;
74108;SDS011;62466;47.566;7.786;2023-02-15T05:59:30;23.30;;;13.13;;
74108;SDS011;62466;47.566;7.786;2023-02-15T06:01:55;24.33;;;13.73;;
74108;SDS011;62466;47.566;7.786;2023-02-15T06:04:21;24.75;;;13.73;;
74108;SDS011;62466;47.566;7.786;2023-02-15T06:06:47;24.20;;;13.55;;
74108;SDS011;62466;47.566;7.786;2023-02-15T06:09:12;26.00;;;13.18;;
74108;SDS011;62466;47.566;7.786;2023-02-15T06:11:38;29.38;;;13.52;;
74108;SDS011;62466;47.566;7.786;2023-02-15T06:14:04;29.80;;;14.68;;
74108;SDS011;62466;47.566;7.786;2023-02-15T06:16:29;25.83;;;14.05;;
74108;SDS011;62466;47.566;7.786;2023-02-15T06:18:55;25.70;;;14.98;;
74108;SDS011;62466;47.566;7.786;2023-02-15T06:21:20;26.23;;;14.32;;
74108;SDS011;62466;47.566;7.786;2023-02-15T06:23:46;28.30;;;13.70;;
74108;SDS011;62466;47.566;7.786;2023-02-15T06:26:11;27.35;;;14.13;;
74108;SDS011;62466;47.566;7.786;2023-02-15T06:28:36;25.58;;;14.32;;
74108;SDS011;62466;47.566;7.786;2023-02-15T06:31:02;24.70;;;13.93;;
74108;SDS011;62466;47.566;7.786;2023-02-15T06:33:28;26.08;;;13.98;;
74108;SDS011;62466;47.566;7.786;2023-02-15T06:35:55;26.17;;;14.90;;
74108;SDS011;62466;47.566;7.786;2023-02-15T06:38:21;28.80;;;14.68;;
74108;SDS011;62466;47.566;7.786;2023-02-15T06:40:47;30.40;;;15.27;;
74108;SDS011;62466;47.566;7.786;2023-02-15T06:43:13;34.53;;;15.55;;
74108;SDS011;62466;47.566;7.786;2023-02-15T06:45:38;27.77;;;15.23;;
74108;SDS011;62466;47.566;7.786;2023-02-15T06:48:04;31.23;;;15.63;;
74108;SDS011;62466;47.566;7.786;2023-02-15T06:50:32;27.73;;;14.63;;
74108;SDS011;62466;47.566;7.786;2023-02-15T06:52:58;34.00;;;15.80;;
74108;SDS011;62466;47.566;7.786;2023-02-15T06:55:24;26.52;;;14.23;;
74108;SDS011;62466;47.566;7.786;2023-02-15T06:57:50;23.60;;;14.48;;
74108;SDS011;62466;47.566;7.786;2023-02-15T07:00:15;26.38;;;14.13;;
74108;SDS011;62466;47.566;7.786;2023-02-15T07:02:42;27.17;;;14.15;;
74108;SDS011;62466;47.566;7.786;2023-02-15T07:05:08;23.58;;;14.02;;
74108;SDS011;62466;47.566;7.786;2023-02-15T07:07:33;29.83;;;15.13;;
74108;SDS011;62466;47.566;7.786;2023-02-15T07:09:58;28.33;;;14.85;;
74108;SDS011;62466;47.566;7.786;2023-02-15T07:12:24;23.77;;;13.77;;
74108;SDS011;62466;47.566;7.786;2023-02-15T07:15:18;25.30;;;13.48;;
74108;SDS011;62466;47.566;7.786;2023-02-15T07:17:45;30.58;;;15.50;;
74108;SDS011;62466;47.566;7.786;2023-02-15T07:20:13;28.42;;;15.45;;
74108;SDS011;62466;47.566;7.786;2023-02-15T07:22:39;25.45;;;13.43;;
74108;SDS011;62466;47.566;7.786;2023-02-15T07:25:06;22.30;;;13.15;;
74108;SDS011;62466;47.566;7.786;2023-02-15T07:27:32;24.80;;;13.93;;
74108;SDS011;62466;47.566;7.786;2023-02-15T07:29:58;32.42;;;15.55;;
74108;SDS011;62466;47.566;7.786;2023-02-15T07:32:26;25.95;;;13.32;;
74108;SDS011;62466;47.566;7.786;2023-02-15T07:34:53;23.73;;;13.88;;
74108;SDS011;62466;47.566;7.786;2023-02-15T07:37:18;24.27;;;14.32;;
74108;SDS011;62466;47.566;7.786;2023-02-15T07:39:44;24.15;;;13.93;;
74108;SDS011;62466;47.566;7.786;2023-02-15T07:42:09;23.65;;;13.80;;
74108;SDS011;62466;47.566;7.786;2023-02-15T07:44:35;24.00;;;13.85;;
74108;SDS011;62466;47.566;7.786;2023-02-15T07:47:00;24.80;;;14.23;;
74108;SDS011;62466;47.566;7.786;2023-02-15T07:49:25;22.38;;;13.43;;
74108;SDS011;62466;47.566;7.786;2023-02-15T07:51:51;26.33;;;13.75;;
74108;SDS011;62466;47.566;7.786;2023-02-15T07:54:16;25.02;;;12.38;;
74108;SDS011;62466;47.566;7.786;2023-02-15T07:56:42;26.80;;;12.82;;
74108;SDS011;62466;47.566;7.786;2023-02-15T07:59:08;23.63;;;13.52;;
74108;SDS011;62466;47.566;7.786;2023-02-15T08:01:34;22.67;;;12.73;;
74108;SDS011;62466;47.566;7.786;2023-02-15T08:04:01;26.02;;;12.88;;
74108;SDS011;62466;47.566;7.786;2023-02-15T08:06:31;25.10;;;13.65;;
74108;SDS011;62466;47.566;7.786;2023-02-15T08:08:58;24.15;;;13.50;;
74108;SDS011;62466;47.566;7.786;2023-02-15T08:11:28;27.50;;;14.35;;
74108;SDS011;62466;47.566;7.786;2023-02-15T08:14:30;25.30;;;14.23;;
74108;SDS011;62466;47.566;7.786;2023-02-15T08:19:24;25.73;;;12.55;;
74108;SDS011;62466;47.566;7.786;2023-02-15T08:22:10;28.17;;;14.52;;
74108;SDS011;62466;47.566;7.786;2023-02-15T08:24:38;28.08;;;13.75;;
74108;SDS011;62466;47.566;7.786;2023-02-15T08:27:04;27.45;;;13.60;;
74108;SDS011;62466;47.566;7.786;2023-02-15T08:29:30;22.70;;;13.57;;
74108;SDS011;62466;47.566;7.786;2023-02-15T08:32:00;23.70;;;13.77;;
74108;SDS011;62466;47.566;7.786;2023-02-15T08:34:28;22.75;;;13.23;;
74108;SDS011;62466;47.566;7.786;2023-02-15T08:36:55;29.80;;;14.55;;
74108;SDS011;62466;47.566;7.786;2023-02-15T08:39:21;28.73;;;14.48;;
74108;SDS011;62466;47.566;7.786;2023-02-15T08:41:46;22.50;;;12.85;;
74108;SDS011;62466;47.566;7.786;2023-02-15T08:44:12;22.92;;;13.32;;
74108;SDS011;62466;47.566;7.786;2023-02-15T08:46:40;27.23;;;14.45;;
74108;SDS011;62466;47.566;7.786;2023-02-15T08:49:07;27.30;;;13.45;;
74108;SDS011;62466;47.566;7.786;2023-02-15T08:51:33;20.13;;;12.45;;
74108;SDS011;62466;47.566;7.786;2023-02-15T08:54:01;22.00;;;12.35;;
74108;SDS011;62466;47.566;7.786;2023-02-15T08:56:31;23.20;;;13.43;;
74108;SDS011;62466;47.566;7.786;2023-02-15T08:58:58;21.23;;;12.25;;
74108;SDS011;62466;47.566;7.786;2023-02-15T09:01:24;20.65;;;13.10;;
74108;SDS011;62466;47.566;7.786;2023-02-15T09:03:55;19.73;;;11.45;;
74108;SDS011;62466;47.566;7.786;2023-02-15T09:06:22;20.67;;;11.07;;
74108;SDS011;62466;47.566;7.786;2023-02-15T09:08:48;21.20;;;12.25;;
74108;SDS011;62466;47.566;7.786;2023-02-15T09:11:15;22.48;;;13.02;;
74108;SDS011;62466;47.566;7.786;2023-02-15T09:13:56;21.42;;;11.93;;
74108;SDS011;62466;47.566;7.786;2023-02-15T09:16:22;21.15;;;10.23;;
74108;SDS011;62466;47.566;7.786;2023-02-15T09:18:48;20.30;;;12.25;;
74108;SDS011;62466;47.566;7.786;2023-02-15T09:21:15;19.05;;;11.32;;
74108;SDS011;62466;47.566;7.786;2023-02-15T09:23:42;22.02;;;11.82;;
74108;SDS011;62466;47.566;7.786;2023-02-15T09:26:10;21.88;;;12.35;;
74108;SDS011;62466;47.566;7.786;2023-02-15T09:28:40;22.98;;;12.30;;
74108;SDS011;62466;47.566;7.786;2023-02-15T09:31:16;20.23;;;12.65;;
74108;SDS011;62466;47.566;7.786;2023-02-15T09:33:44;26.58;;;13.55;;
74108;SDS011;62466;47.566;7.786;2023-02-15T09:38:47;21.60;;;11.20;;
74108;SDS011;62466;47.566;7.786;2023-02-15T09:50:06;23.15;;;13.23;;
74108;SDS011;62466;47.566;7.786;2023-02-15T09:58:08;23.10;;;12.25;;
74108;SDS011;62466;47.566;7.786;2023-02-15T10:00:59;21.35;;;12.18;;
74108;SDS011;62466;47.566;7.786;2023-02-15T10:14:41;21.92;;;13.23;;
74108;SDS011;62466;47.566;7.786;2023-02-15T10:20:58;21.02;;;12.25;;
74108;SDS011;62466;47.566;7.786;2023-02-15T10:26:44;19.73;;;12.82;;
74108;SDS011;62466;47.566;7.786;2023-02-15T10:32:16;19.67;;;12.55;;
74108;SDS011;62466;47.566;7.786;2023-02-15T10:35:00;18.20;;;11.00;;
74108;SDS011;62466;47.566;7.786;2023-02-15T10:40:14;21.00;;;12.63;;
74108;SDS011;62466;47.566;7.786;2023-02-15T10:42:51;19.77;;;11.95;;
74108;SDS011;62466;47.566;7.786;2023-02-15T10:48:17;17.42;;;11.57;;
74108;SDS011;62466;47.566;7.786;2023-02-15T10:50:51;21.02;;;11.95;;
74108;SDS011;62466;47.566;7.786;2023-02-15T11:08:09;16.67;;;12.20;;
74108;SDS011;62466;47.566;7.786;2023-02-15T11:10:37;18.38;;;12.13;;
74108;SDS011;62466;47.566;7.786;2023-02-15T11:13:11;20.13;;;11.70;;
74108;SDS011;62466;47.566;7.786;2023-02-15T11:15:41;17.67;;;11.45;;
74108;SDS011;62466;47.566;7.786;2023-02-15T11:18:21;18.98;;;12.65;;
74108;SDS011;62466;47.566;7.786;2023-02-15T11:20:59;21.17;;;12.07;;
74108;SDS011;62466;47.566;7.786;2023-02-15T11:23:27;19.48;;;13.23;;
74108;SDS011;62466;47.566;7.786;2023-02-15T11:25:57;22.25;;;13.48;;
74108;SDS011;62466;47.566;7.786;2023-02-15T11:28:34;19.50;;;12.40;;
74108;SDS011;62466;47.566;7.786;2023-02-15T11:31:11;17.25;;;11.80;;
74108;SDS011;62466;47.566;7.786;2023-02-15T11:33:42;20.20;;;12.70;;
74108;SDS011;62466;47.566;7.786;2023-02-15T11:36:13;18.52;;;12.90;;
74108;SDS011;62466;47.566;7.786;2023-02-15T11:38:42;20.23;;;12.20;;
74108;SDS011;62466;47.566;7.786;2023-02-15T11:41:13;17.50;;;12.75;;
74108;SDS011;62466;47.566;7.786;2023-02-15T11:46:40;18.65;;;13.10;;
74108;SDS011;62466;47.566;7.786;2023-02-15T11:49:26;22.90;;;13.95;;
74108;SDS011;62466;47.566;7.786;2023-02-15T11:51:56;18.08;;;12.38;;
74108;SDS011;62466;47.566;7.786;2023-02-15T11:54:33;20.08;;;12.85;;
74108;SDS011;62466;47.566;7.786;2023-02-15T11:57:11;19.55;;;12.38;;
74108;SDS011;62466;47.566;7.786;2023-02-15T11:59:41;21.77;;;13.55;;
74108;SDS011;62466;47.566;7.786;2023-02-15T12:02:21;23.73;;;14.13;;
74108;SDS011;62466;47.566;7.786;2023-02-15T12:04:57;20.33;;;13.25;;
74108;SDS011;62466;47.566;7.786;2023-02-15T12:07:26;19.60;;;13.18;;
74108;SDS011;62466;47.566;7.786;2023-02-15T12:10:02;19.52;;;12.98;;
74108;SDS011;62466;47.566;7.786;2023-02-15T12:12:36;17.20;;;11.88;;
74108;SDS011;62466;47.566;7.786;2023-02-15T12:15:10;21.90;;;13.98;;
74108;SDS011;62466;47.566;7.786;2023-02-15T12:17:40;19.88;;;13.05;;
74108;SDS011;62466;47.566;7.786;2023-02-15T12:20:20;21.15;;;13.80;;
74108;SDS011;62466;47.566;7.786;2023-02-15T12:25:53;18.85;;;12.45;;
74108;SDS011;62466;47.566;7.786;2023-02-15T12:28:30;22.10;;;14.02;;
74108;SDS011;62466;47.566;7.786;2023-02-15T12:30:57;22.75;;;14.65;;
74108;SDS011;62466;47.566;7.786;2023-02-15T12:36:01;20.90;;;14.30;;
74108;SDS011;62466;47.566;7.786;2023-02-15T12:38:33;19.63;;;13.18;;
74108;SDS011;62466;47.566;7.786;2023-02-15T12:41:03;21.85;;;14.93;;
74108;SDS011;62466;47.566;7.786;2023-02-15T12:43:35;23.85;;;14.15;;
74108;SDS011;62466;47.566;7.786;2023-02-15T12:46:43;19.45;;;13.52;;
74108;SDS011;62466;47.566;7.786;2023-02-15T12:49:17;22.50;;;14.85;;
74108;SDS011;62466;47.566;7.786;2023-02-15T12:51:49;20.23;;;14.43;;
74108;SDS011;62466;47.566;7.786;2023-02-15T12:59:12;21.77;;;14.25;;
74108;SDS011;62466;47.566;7.786;2023-02-15T13:01:39;20.77;;;14.00;;
74108;SDS011;62466;47.566;7.786;2023-02-15T13:04:14;21.38;;;14.65;;
74108;SDS011;62466;47.566;7.786;2023-02-15T13:06:51;21.83;;;13.52;;
74108;SDS011;62466;47.566;7.786;2023-02-15T13:11:57;22.42;;;14.30;;
74108;SDS011;62466;47.566;7.786;2023-02-15T13:14:34;23.20;;;13.52;;
74108;SDS011;62466;47.566;7.786;2023-02-15T13:17:03;20.33;;;14.00;;
74108;SDS011;62466;47.566;7.786;2023-02-15T13:19:31;22.95;;;14.80;;
74108;SDS011;62466;47.566;7.786;2023-02-15T13:22:01;22.48;;;15.35;;
74108;SDS011;62466;47.566;7.786;2023-02-15T13:24:35;22.58;;;15.40;;
74108;SDS011;62466;47.566;7.786;2023-02-15T13:27:02;22.40;;;15.23;;
74108;SDS011;62466;47.566;7.786;2023-02-15T13:29:29;23.65;;;14.80;;
74108;SDS011;62466;47.566;7.786;2023-02-15T13:31:57;23.00;;;15.63;;
74108;SDS011;62466;47.566;7.786;2023-02-15T13:34:26;22.23;;;15.40;;
74108;SDS011;62466;47.566;7.786;2023-02-15T13:39:39;23.77;;;15.68;;
74108;SDS011;62466;47.566;7.786;2023-02-15T13:45:07;22.15;;;15.23;;
74108;SDS011;62466;47.566;7.786;2023-02-15T13:47:50;21.98;;;14.85;;
74108;SDS011;62466;47.566;7.786;2023-02-15T13:55:35;19.33;;;14.68;;
74108;SDS011;62466;47.566;7.786;2023-02-15T13:58:16;19.83;;;15.40;;
74108;SDS011;62466;47.566;7.786;2023-02-15T14:04:10;21.05;;;14.95;;
74108;SDS011;62466;47.566;7.786;2023-02-15T14:14:45;21.85;;;15.50;;
74108;SDS011;62466;47.566;7.786;2023-02-15T14:22:53;20.10;;;14.77;;
74108;SDS011;62466;47.566;7.786;2023-02-15T14:25:34;24.70;;;15.32;;
74108;SDS011;62466;47.566;7.786;2023-02-15T14:30:55;21.77;;;15.18;;
74108;SDS011;62466;47.566;7.786;2023-02-15T14:33:31;19.48;;;15.25;;
74108;SDS011;62466;47.566;7.786;2023-02-15T14:35:59;17.48;;;12.68;;
74108;SDS011;62466;47.566;7.786;2023-02-15T14:44:07;22.23;;;16.02;;
74108;SDS011;62466;47.566;7.786;2023-02-15T14:49:17;23.88;;;16.25;;
74108;SDS011;62466;47.566;7.786;2023-02-15T14:56:47;22.98;;;15.55;;
74108;SDS011;62466;47.566;7.786;2023-02-15T15:01:58;23.45;;;15.55;;
74108;SDS011;62466;47.566;7.786;2023-02-15T15:07:02;23.95;;;16.77;;
74108;SDS011;62466;47.566;7.786;2023-02-15T15:09:35;23.95;;;16.05;;
74108;SDS011;62466;47.566;7.786;2023-02-15T15:14:46;22.58;;;14.82;;
74108;SDS011;62466;47.566;7.786;2023-02-15T15:17:13;23.90;;;15.48;;
74108;SDS011;62466;47.566;7.786;2023-02-15T15:19:58;21.42;;;15.10;;
74108;SDS011;62466;47.566;7.786;2023-02-15T15:22:25;25.80;;;16.58;;
74108;SDS011;62466;47.566;7.786;2023-02-15T15:24:53;23.95;;;14.63;;
74108;SDS011;62466;47.566;7.786;2023-02-15T15:41:27;27.10;;;15.88;;
74108;SDS011;62466;47.566;7.786;2023-02-15T15:44:03;24.77;;;15.57;;
74108;SDS011;62466;47.566;7.786;2023-02-15T15:46:45;23.58;;;15.00;;
74108;SDS011;62466;47.566;7.786;2023-02-15T15:49:16;23.45;;;16.27;;
74108;SDS011;62466;47.566;7.786;2023-02-15T15:51:44;21.15;;;14.48;;
74108;SDS011;62466;47.566;7.786;2023-02-15T15:54:17;22.55;;;14.95;;
74108;SDS011;62466;47.566;7.786;2023-02-15T15:56:45;25.52;;;15.82;;
74108;SDS011;62466;47.566;7.786;2023-02-15T15:59:15;24.20;;;14.60;;
74108;SDS011;62466;47.566;7.786;2023-02-15T16:01:44;21.50;;;14.02;;
74108;SDS011;62466;47.566;7.786;2023-02-15T16:04:12;30.80;;;17.90;;
74108;SDS011;62466;47.566;7.786;2023-02-15T16:06:40;25.33;;;16.27;;
74108;SDS011;62466;47.566;7.786;2023-02-15T16:09:13;26.52;;;14.95;;
74108;SDS011;62466;47.566;7.786;2023-02-15T16:11:42;27.70;;;15.85;;
74108;SDS011;62466;47.566;7.786;2023-02-15T16:14:30;25.98;;;15.60;;
74108;SDS011;62466;47.566;7.786;2023-02-15T16:16:56;27.75;;;16.17;;
74108;SDS011;62466;47.566;7.786;2023-02-15T16:19:25;28.83;;;16.20;;
74108;SDS011;62466;47.566;7.786;2023-02-15T16:21:52;33.97;;;16.38;;
74108;SDS011;62466;47.566;7.786;2023-02-15T16:24:23;27.80;;;15.98;;
74108;SDS011;62466;47.566;7.786;2023-02-15T16:29:25;27.65;;;16.50;;
74108;SDS011;62466;47.566;7.786;2023-02-15T16:32:00;30.30;;;16.83;;
74108;SDS011;62466;47.566;7.786;2023-02-15T16:34:31;31.42;;;17.17;;
74108;SDS011;62466;47.566;7.786;2023-02-15T16:37:16;32.50;;;16.83;;
74108;SDS011;62466;47.566;7.786;2023-02-15T16:39:44;29.25;;;16.75;;
74108;SDS011;62466;47.566;7.786;2023-02-15T16:42:12;33.22;;;17.98;;
74108;SDS011;62466;47.566;7.786;2023-02-15T16:44:39;26.13;;;15.50;;
74108;SDS011;62466;47.566;7.786;2023-02-15T16:47:05;34.45;;;17.38;;
74108;SDS011;62466;47.566;7.786;2023-02-15T16:49:56;34.70;;;18.38;;
74108;SDS011;62466;47.566;7.786;2023-02-15T16:52:24;27.98;;;16.40;;
74108;SDS011;62466;47.566;7.786;2023-02-15T16:54:59;32.92;;;18.10;;
74108;SDS011;62466;47.566;7.786;2023-02-15T16:57:26;32.00;;;17.63;;
74108;SDS011;62466;47.566;7.786;2023-02-15T16:59:58;28.33;;;17.05;;
74108;SDS011;62466;47.566;7.786;2023-02-15T17:02:29;27.63;;;16.25;;
74108;SDS011;62466;47.566;7.786;2023-02-15T17:08:12;27.98;;;16.13;;
74108;SDS011;62466;47.566;7.786;2023-02-15T17:10:41;35.15;;;18.30;;
74108;SDS011;62466;47.566;7.786;2023-02-15T17:13:12;32.92;;;17.92;;
74108;SDS011;62466;47.566;7.786;2023-02-15T17:18:23;27.58;;;16.95;;
74108;SDS011;62466;47.566;7.786;2023-02-15T17:20:50;34.30;;;17.77;;
74108;SDS011;62466;47.566;7.786;2023-02-15T17:23:40;28.55;;;16.48;;
74108;SDS011;62466;47.566;7.786;2023-02-15T17:26:14;31.50;;;18.10;;
74108;SDS011;62466;47.566;7.786;2023-02-15T17:28:54;28.38;;;17.58;;
74108;SDS011;62466;47.566;7.786;2023-02-15T17:31:21;34.95;;;19.08;;
74108;SDS011;62466;47.566;7.786;2023-02-15T17:33:50;31.70;;;18.67;;
74108;SDS011;62466;47.566;7.786;2023-02-15T17:36:20;37.10;;;20.52;;
74108;SDS011;62466;47.566;7.786;2023-02-15T17:41:22;39.35;;;19.88;;
74108;SDS011;62466;47.566;7.786;2023-02-15T17:43:59;31.40;;;18.27;;
74108;SDS011;62466;47.566;7.786;2023-02-15T17:46:25;32.08;;;17.85;;
74108;SDS011;62466;47.566;7.786;2023-02-15T17:48:52;33.60;;;19.48;;
74108;SDS011;62466;47.566;7.786;2023-02-15T17:51:20;33.22;;;17.98;;